Terminal Aerodrome Forecast
Issued by NWS

Home | Current Version | Previous Version | Text Only | Print | Product List | Glossary Off
Versions: 1 2 3 4 5 6 7 8 9 10 11 12 13 14 15 16

000
FTUS43 KBIS 231700
TAFJMS
TAF
KJMS 231733Z 2318/2418 12007KT P6SM SCT040 SCT100
     FM232100 13012KT P6SM SCT050
     FM240600 15012KT P6SM VCTS SCT050CB BKN100
     FM241500 15015G23KT P6SM SCT070 SCT100=

USA.gov is the U.S. government's official web portal to all federal, state and local government web resources and services.